Time;durP1;ratioP1;P1;durP2;ratioP2;P2;SDS_P1;SDS_P2;PMS_P1;PMS_P2;Temp;Humidity;BMP_temperature;BMP_pressure;BME280_temperature;BME280_humidity;BME280_pressure;Samples;Min_cycle;Max_cycle;Signal;HPM_P1;HPM_P2
2023/06/23 00:01:49;;;;;;;11.20;8.70;;;;;;;23.49;61.84;98853.01;223599;181;145438;-63
2023/06/23 00:06:53;;;;;;;9.70;8.30;;;;;;;23.42;62.09;98854.55;223625;178;138520;-66
2023/06/23 00:11:57;;;;;;;12.60;8.80;;;;;;;23.34;62.44;98843.51;223685;181;136180;-63
2023/06/23 00:17:01;;;;;;;12.10;8.50;;;;;;;23.27;62.69;98835.85;223706;181;148455;-66
2023/06/23 00:22:05;;;;;;;12.20;9.20;;;;;;;23.21;62.87;98827.22;223726;181;138799;-65
2023/06/23 00:27:08;;;;;;;11.60;8.80;;;;;;;23.19;63.00;98808.43;223727;181;137391;-65
2023/06/23 00:32:11;;;;;;;10.00;8.60;;;;;;;23.18;63.02;98812.30;223736;182;145324;-65
2023/06/23 00:37:15;;;;;;;12.10;8.60;;;;;;;23.21;62.96;98811.80;223688;182;139431;-64
2023/06/23 00:42:18;;;;;;;11.60;8.90;;;;;;;23.21;62.62;98812.15;223748;181;136820;-67
2023/06/23 00:47:22;;;;;;;10.40;8.60;;;;;;;23.21;62.60;98808.08;223761;182;145573;-64
2023/06/23 00:52:25;;;;;;;12.40;8.50;;;;;;;23.19;62.56;98805.88;223721;181;138548;-65
2023/06/23 00:57:28;;;;;;;11.90;8.50;;;;;;;23.18;62.37;98800.47;223797;181;137774;-66
2023/06/23 01:02:32;;;;;;;9.20;8.20;;;;;;;23.16;62.55;98803.54;223591;181;145861;-67
2023/06/23 01:08:17;;;;;;;9.20;8.30;;;;;;;23.13;62.76;98800.77;223708;182;138159;-67
2023/06/23 01:13:40;;;;;;;10.60;8.40;;;;;;;23.06;62.85;98790.06;223740;181;137113;-69
2023/06/23 01:18:49;;;;;;;10.20;8.50;;;;;;;23.03;63.03;98787.71;223767;181;145601;-69
2023/06/23 01:24:17;;;;;;;10.10;8.10;;;;;;;22.97;63.07;98778.47;223659;181;139015;-69
2023/06/23 01:29:31;;;;;;;10.20;7.90;;;;;;;22.95;63.30;98770.77;223676;181;137647;-67
2023/06/23 01:34:50;;;;;;;9.30;8.10;;;;;;;23.00;63.01;98765.27;223676;181;145825;-68
2023/06/23 01:40:06;;;;;;;10.70;8.50;;;;;;;23.07;62.77;98764.23;223723;181;138348;-66
2023/06/23 01:45:14;;;;;;;13.10;8.70;;;;;;;23.10;62.54;98756.89;223705;181;137963;-67
2023/06/23 01:50:20;;;;;;;12.20;8.40;;;;;;;23.07;62.40;98753.46;223726;182;145365;-65
2023/06/23 01:55:26;;;;;;;9.50;7.90;;;;;;;23.03;62.60;98751.89;223761;181;139916;-64
2023/06/23 02:00:30;;;;;;;;;;;;;;;22.96;62.66;98742.98;223714;181;137017;-66
2023/06/23 02:05:36;;;;;;;11.60;8.20;;;;;;;22.85;62.99;98739.97;223720;181;146645;-67
2023/06/23 02:10:41;;;;;;;11.70;8.20;;;;;;;22.75;63.11;98738.19;223663;182;139075;-67
2023/06/23 02:15:48;;;;;;;11.00;8.50;;;;;;;22.63;63.59;98716.20;223808;181;136387;-64
2023/06/23 02:20:53;;;;;;;16.00;8.30;;;;;;;22.55;63.75;98713.73;223701;181;145452;-64
2023/06/23 02:25:57;;;;;;;;;;;;;;;22.49;63.99;98715.55;223791;181;138485;-64
2023/06/23 02:31:02;;;;;;;11.10;8.60;;;;;;;22.46;64.38;98707.57;223675;181;129255;-67
2023/06/23 02:36:07;;;;;;;;;;;;;;;22.47;64.33;98695.17;223723;182;145705;-65
2023/06/23 02:41:12;;;;;;;12.40;9.70;;;;;;;22.53;64.30;98697.20;223762;181;138374;-68
2023/06/23 02:46:18;;;;;;;11.50;8.90;;;;;;;22.57;64.32;98704.64;223731;181;136762;-65
2023/06/23 02:51:25;;;;;;;10.90;9.60;;;;;;;22.58;64.30;98726.33;223702;181;147068;-67
2023/06/23 02:56:29;;;;;;;11.30;9.10;;;;;;;22.58;64.48;98737.99;223747;182;150813;-67
2023/06/23 03:01:37;;;;;;;14.30;8.80;;;;;;;22.55;64.38;98731.95;223639;181;137019;-70
2023/06/23 03:06:43;;;;;;;12.40;9.20;;;;;;;22.55;64.43;98722.58;223707;181;145855;-63
2023/06/23 03:11:47;;;;;;;11.20;9.60;;;;;;;22.52;64.58;98723.33;223766;182;139074;-64
2023/06/23 03:17:25;;;;;;;10.80;9.30;;;;;;;22.51;64.72;98724.92;223707;182;136464;-67
2023/06/23 03:22:35;;;;;;;14.10;9.90;;;;;;;22.53;64.86;98725.77;223696;182;146867;-66
2023/06/23 03:27:40;;;;;;;14.50;10.10;;;;;;;22.60;65.01;98735.62;223759;181;138691;-66
2023/06/23 03:32:49;;;;;;;12.40;9.80;;;;;;;22.65;65.02;98752.08;223672;181;137339;-64
2023/06/23 03:37:59;;;;;;;13.50;10.00;;;;;;;22.71;64.84;98765.01;223790;181;147166;-66
2023/06/23 03:43:09;;;;;;;12.10;9.90;;;;;;;22.74;64.84;98770.41;223737;181;138668;-67
2023/06/23 03:48:14;;;;;;;13.80;10.00;;;;;;;22.78;64.90;98774.23;223678;181;136757;-65
2023/06/23 03:53:18;;;;;;;12.70;10.30;;;;;;;22.81;65.08;98762.06;223662;181;145504;-65
2023/06/23 03:58:23;;;;;;;56.10;47.40;;;;;;;22.85;65.30;98775.80;223679;181;138265;-66
2023/06/23 04:03:29;;;;;;;13.20;10.90;;;;;;;22.94;65.44;98779.12;223787;181;137716;-65
2023/06/23 04:08:34;;;;;;;47.70;33.50;;;;;;;23.06;65.48;98768.89;223718;181;145100;-68
2023/06/23 04:13:39;;;;;;;15.50;10.50;;;;;;;23.23;65.30;98749.92;223770;181;138339;-64
2023/06/23 04:18:43;;;;;;;;;;;;;;;23.34;65.24;98745.64;222265;182;137832;-65
2023/06/23 04:23:49;;;;;;;14.40;10.70;;;;;;;23.43;65.05;98752.39;221464;182;146603;-65
2023/06/23 04:28:55;;;;;;;153.10;121.50;;;;;;;23.50;64.91;98739.04;221402;181;139589;-65
2023/06/23 04:33:59;;;;;;;14.80;12.60;;;;;;;23.56;64.89;98722.84;223931;181;137780;-69
2023/06/23 04:39:16;;;;;;;11.50;10.00;;;;;;;23.66;65.23;98723.46;223746;181;144491;-70
2023/06/23 04:44:21;;;;;;;16.60;11.10;;;;;;;23.75;65.16;98726.99;221381;181;139659;-66
2023/06/23 04:49:29;;;;;;;48.20;41.30;;;;;;;23.82;64.93;98730.02;223904;181;137354;-64
2023/06/23 04:54:40;;;;;;;12.60;10.80;;;;;;;23.88;64.90;98722.08;223796;181;144913;-65
2023/06/23 04:59:49;;;;;;;15.40;10.60;;;;;;;24.05;64.80;98711.26;223814;181;140361;-66
2023/06/23 05:04:55;;;;;;;25.00;11.40;;;;;;;24.20;64.67;98706.59;223868;181;137280;-65
2023/06/23 05:10:00;;;;;;;31.10;12.40;;;;;;;24.26;64.71;98703.61;223835;181;144887;-66
2023/06/23 05:15:08;;;;;;;86.70;55.30;;;;;;;24.37;64.81;98704.95;223785;181;138373;-66
2023/06/23 05:20:13;;;;;;;31.10;18.30;;;;;;;24.47;64.59;98713.67;223920;182;136782;-65
2023/06/23 05:25:18;;;;;;;;;;;;;;;24.44;64.17;98715.40;223869;181;145016;-68
2023/06/23 05:30:23;;;;;;;34.00;20.00;;;;;;;24.44;64.43;98721.55;223913;182;139723;-66
2023/06/23 05:35:28;;;;;;;30.70;16.70;;;;;;;24.46;64.43;98728.40;223885;182;136801;-70
2023/06/23 05:40:32;;;;;;;25.60;16.00;;;;;;;24.49;64.48;98731.20;223741;182;145275;-63
2023/06/23 05:50:48;;;;;;;35.70;17.50;;;;;;;24.64;64.30;98695.31;221684;193;666828;-68
2023/06/23 05:56:11;;;;;;;26.70;16.70;;;;;;;24.74;64.60;98693.64;223478;186;136644;-66
2023/06/23 06:01:20;;;;;;;61.70;35.70;;;;;;;24.86;64.61;98685.89;223777;181;143532;-67
2023/06/23 06:06:25;;;;;;;43.60;18.60;;;;;;;25.02;64.24;98675.55;223834;181;139296;-64
2023/06/23 06:11:28;;;;;;;28.30;16.20;;;;;;;25.16;64.08;98660.24;223970;182;137229;-66
2023/06/23 06:16:32;;;;;;;43.40;17.10;;;;;;;25.26;64.06;98651.52;223930;183;143506;-63
2023/06/23 06:21:38;;;;;;;54.90;22.40;;;;;;;25.36;63.97;98636.76;223925;182;138607;-65
2023/06/23 06:26:44;;;;;;;44.50;16.30;;;;;;;25.44;64.15;98643.67;223870;181;137746;-66
2023/06/23 06:31:50;;;;;;;44.90;16.60;;;;;;;25.53;63.98;98738.71;223913;181;143967;-66
2023/06/23 06:36:55;;;;;;;37.40;14.30;;;;;;;25.51;63.22;98799.66;223850;181;139901;-66
2023/06/23 06:41:58;;;;;;;;;;;;;;;25.37;63.86;98821.94;223939;182;136835;-73
2023/06/23 06:47:04;;;;;;;21.00;10.10;;;;;;;25.21;62.75;98857.48;223971;182;145000;-67
2023/06/23 06:52:07;;;;;;;23.10;8.10;;;;;;;25.00;62.26;98877.42;223953;182;138457;-67
2023/06/23 06:57:11;;;;;;;18.40;10.80;;;;;;;24.70;63.17;98824.59;223809;181;136786;-67
2023/06/23 07:02:16;;;;;;;20.60;8.20;;;;;;;24.40;64.90;98746.27;223800;181;145779;-67
2023/06/23 07:07:19;;;;;;;14.00;6.60;;;;;;;24.21;65.64;98705.17;223905;181;138227;-67
2023/06/23 07:12:23;;;;;;;39.30;23.00;;;;;;;24.03;66.11;98691.40;223890;181;136587;-69
2023/06/23 07:17:26;;;;;;;16.60;7.80;;;;;;;23.83;66.61;98688.68;223847;181;145294;-68
2023/06/23 07:22:30;;;;;;;19.00;7.70;;;;;;;23.71;67.13;98658.77;223983;181;138159;-67
2023/06/23 07:27:33;;;;;;;15.80;6.90;;;;;;;23.53;67.94;98650.10;223861;181;136943;-67
2023/06/23 07:32:37;;;;;;;14.80;7.40;;;;;;;23.43;68.75;98696.77;223846;181;145702;-68
2023/06/23 07:37:40;;;;;;;16.60;7.90;;;;;;;23.37;69.03;98770.25;223829;181;139875;-66
2023/06/23 07:42:43;;;;;;;16.80;8.00;;;;;;;23.34;69.34;98824.20;223862;181;139255;-65
2023/06/23 07:47:47;;;;;;;19.90;9.20;;;;;;;23.26;69.98;98809.80;223787;181;146044;-64
2023/06/23 07:52:53;;;;;;;19.30;9.30;;;;;;;23.18;70.60;98824.29;223883;181;139085;-70
2023/06/23 07:57:56;;;;;;;18.30;8.50;;;;;;;23.13;70.90;98820.21;223904;181;140271;-65
2023/06/23 08:02:59;;;;;;;66.40;47.90;;;;;;;23.10;71.59;98800.63;223812;181;145276;-65
2023/06/23 08:50:52;;;;;;;15.00;6.60;;;;;;;23.42;72.08;98802.30;219568;198;665657;-66
2023/06/23 08:55:56;;;;;;;11.70;5.50;;;;;;;23.39;71.86;98797.12;223611;180;136356;-65
2023/06/23 09:00:59;;;;;;;12.30;5.80;;;;;;;23.42;71.93;98809.45;223465;184;143386;-65
2023/06/23 09:06:03;;;;;;;9.60;5.60;;;;;;;23.48;71.62;98815.16;223772;182;150160;-68
2023/06/23 09:11:07;;;;;;;75.90;63.70;;;;;;;23.55;71.57;98822.38;223863;182;136352;-68
2023/06/23 09:16:10;;;;;;;19.70;7.40;;;;;;;23.52;71.21;98822.79;223902;183;143340;-68
2023/06/23 09:21:14;;;;;;;14.30;5.30;;;;;;;23.53;71.36;98814.91;223684;183;138416;-69
2023/06/23 09:26:18;;;;;;;17.40;5.60;;;;;;;23.55;70.76;98821.01;223733;184;137623;-69
2023/06/23 09:31:23;;;;;;;17.40;6.00;;;;;;;23.58;70.94;98820.45;223777;183;143284;-71
2023/06/23 09:36:33;;;;;;;31.70;18.50;;;;;;;23.69;71.30;98822.34;223738;182;138916;-68
2023/06/23 09:41:36;;;;;;;24.50;7.00;;;;;;;23.80;72.12;98823.23;223761;183;137002;-72
2023/06/23 09:47:04;;;;;;;18.90;9.50;;;;;;;23.91;71.77;98824.82;223665;183;145300;-66
2023/06/23 09:52:11;;;;;;;12.20;7.10;;;;;;;24.07;71.50;98829.41;223790;183;139321;-66
2023/06/23 09:57:17;;;;;;;12.80;5.70;;;;;;;24.24;71.20;98826.42;223722;183;137088;-64
2023/06/23 10:02:25;;;;;;;21.50;13.10;;;;;;;24.39;71.08;98820.61;223713;184;144975;-67
2023/06/23 10:07:31;;;;;;;18.70;7.70;;;;;;;24.57;70.81;98818.44;223605;184;138331;-65
2023/06/23 10:12:37;;;;;;;16.10;7.70;;;;;;;24.72;70.09;98820.50;223569;184;136620;-63
2023/06/23 10:17:41;;;;;;;70.90;56.20;;;;;;;24.87;69.70;98820.89;223643;184;145936;-66
2023/06/23 10:22:44;;;;;;;13.10;6.50;;;;;;;25.04;69.45;98820.12;223686;184;139360;-65
2023/06/23 10:27:51;;;;;;;12.20;6.30;;;;;;;25.23;69.12;98807.77;223589;184;137674;-66
2023/06/23 10:32:56;;;;;;;11.90;6.50;;;;;;;25.39;68.66;98800.06;223674;184;145119;-66
2023/06/23 10:38:04;;;;;;;9.20;6.40;;;;;;;25.50;68.25;98795.02;223542;184;139215;-65
2023/06/23 10:43:10;;;;;;;13.70;7.20;;;;;;;25.55;67.65;98802.42;223637;183;136493;-67
2023/06/23 10:48:13;;;;;;;18.50;13.40;;;;;;;25.62;67.92;98788.98;223839;182;145099;-66
2023/06/23 10:53:18;;;;;;;70.50;57.50;;;;;;;25.71;67.73;98797.61;223844;182;140786;-65
2023/06/23 10:58:23;;;;;;;14.00;8.50;;;;;;;25.71;67.20;98792.42;223829;182;137831;-65
2023/06/23 11:03:27;;;;;;;12.20;8.00;;;;;;;25.76;67.01;98800.45;223692;182;145241;-66
2023/06/23 11:08:41;;;;;;;19.80;8.20;;;;;;;25.77;67.21;98818.46;223727;179;138573;-67
2023/06/23 11:13:49;;;;;;;14.50;9.10;;;;;;;25.83;67.32;98804.34;223485;183;137251;-64
2023/06/23 11:18:57;;;;;;;33.70;23.90;;;;;;;25.84;67.51;98788.54;221713;186;147145;-65
2023/06/23 11:24:20;;;;;;;21.40;12.80;;;;;;;25.81;67.06;98778.50;223491;182;139481;-64
2023/06/23 11:29:24;;;;;;;21.70;10.40;;;;;;;25.77;67.45;98764.71;223607;182;136679;-65
2023/06/23 11:34:27;;;;;;;16.30;10.50;;;;;;;25.71;68.15;98758.85;223616;193;145059;-65
2023/06/23 11:39:30;;;;;;;38.60;18.80;;;;;;;25.74;68.39;98759.83;223532;182;138237;-66
2023/06/23 11:44:34;;;;;;;24.10;14.70;;;;;;;25.67;69.01;98771.95;223780;182;136936;-64
2023/06/23 11:50:45;;;;;;;21.20;10.90;;;;;;;25.62;68.92;98809.11;219856;193;666261;-65
2023/06/23 11:55:50;;;;;;;22.70;11.60;;;;;;;25.57;69.17;98808.48;221523;180;136716;-65
2023/06/23 12:00:53;;;;;;;17.20;9.40;;;;;;;25.55;69.11;98762.52;224131;181;143484;-65
2023/06/23 12:05:58;;;;;;;17.60;9.80;;;;;;;25.45;69.44;98751.41;223996;181;138356;-65
2023/06/23 12:11:01;;;;;;;69.40;57.80;;;;;;;25.38;69.88;98782.25;223955;180;136994;-66
2023/06/23 12:16:07;;;;;;;89.00;78.90;;;;;;;25.37;70.40;98799.43;223926;181;143805;-66
2023/06/23 12:21:11;;;;;;;21.30;16.50;;;;;;;25.36;70.69;98805.06;223891;181;138597;-63
2023/06/23 12:26:18;;;;;;;16.00;10.60;;;;;;;25.25;70.48;98776.23;223916;181;136644;-64
2023/06/23 12:31:27;;;;;;;269.40;241.60;;;;;;;25.16;70.69;98757.66;223951;181;144013;-64
2023/06/23 12:36:38;;;;;;;21.80;13.10;;;;;;;25.13;71.41;98754.33;223690;181;139374;-66
2023/06/23 12:41:41;;;;;;;19.20;9.30;;;;;;;25.14;71.50;98763.38;222384;181;140088;-66
2023/06/23 12:46:46;;;;;;;22.20;10.30;;;;;;;25.15;71.62;98756.73;223969;180;147263;-63
2023/06/23 12:51:50;;;;;;;17.50;9.90;;;;;;;25.14;71.37;98750.02;223906;181;138401;-64
2023/06/23 12:57:02;;;;;;;17.10;10.00;;;;;;;25.10;71.81;98765.60;223879;182;136332;-64
2023/06/23 13:02:06;;;;;;;19.60;10.80;;;;;;;25.03;71.88;98784.27;223692;182;145553;-65
2023/06/23 13:07:09;;;;;;;22.40;9.90;;;;;;;25.02;71.25;98774.21;223710;181;138479;-66
2023/06/23 13:12:12;;;;;;;17.40;9.40;;;;;;;25.08;71.39;98749.73;223722;182;137029;-64
2023/06/23 13:17:16;;;;;;;21.90;10.70;;;;;;;25.18;71.59;98760.90;223821;181;145026;-62
2023/06/23 13:22:19;;;;;;;19.30;9.30;;;;;;;25.23;71.18;98777.90;223817;181;140100;-66
2023/06/23 13:27:23;;;;;;;19.10;9.90;;;;;;;25.31;71.32;98779.13;223789;181;137139;-65
2023/06/23 13:32:27;;;;;;;23.80;10.30;;;;;;;25.38;70.77;98774.29;223755;181;145077;-64
2023/06/23 13:37:34;;;;;;;25.40;9.90;;;;;;;25.45;70.49;98788.52;223791;181;138638;-64
2023/06/23 13:42:37;;;;;;;29.20;9.90;;;;;;;25.54;70.71;98821.84;223845;181;136881;-66
2023/06/23 13:47:41;;;;;;;21.60;10.10;;;;;;;25.60;70.39;98839.75;223680;181;145869;-65
2023/06/23 13:52:45;;;;;;;29.40;18.10;;;;;;;25.58;70.37;98841.49;223924;181;138890;-65
2023/06/23 13:57:48;;;;;;;22.00;12.90;;;;;;;25.60;70.16;98846.08;223814;181;138143;-66
2023/06/23 14:02:51;;;;;;;29.40;14.20;;;;;;;25.62;70.10;98837.05;223744;181;146510;-66
2023/06/23 14:07:56;;;;;;;30.60;16.60;;;;;;;25.67;69.91;98834.06;223627;181;139194;-66
2023/06/23 14:12:59;;;;;;;30.80;16.70;;;;;;;25.68;69.84;98821.37;223777;181;137053;-66
2023/06/23 14:18:03;;;;;;;22.60;15.00;;;;;;;25.74;69.98;98810.20;223905;181;145842;-66
2023/06/23 14:23:06;;;;;;;23.20;13.40;;;;;;;25.74;70.22;98802.45;223848;181;138827;-67
2023/06/23 14:28:09;;;;;;;19.50;12.80;;;;;;;25.74;69.86;98797.16;223704;182;137820;-66
2023/06/23 14:33:13;;;;;;;61.30;50.90;;;;;;;25.79;69.43;98801.66;221641;182;144745;-66
2023/06/23 14:38:16;;;;;;;47.10;35.30;;;;;;;25.85;69.31;98801.64;221328;181;139527;-65
2023/06/23 14:43:20;;;;;;;35.70;28.10;;;;;;;25.87;69.12;98801.16;223811;181;137191;-66
2023/06/23 14:48:23;;;;;;;30.40;16.20;;;;;;;25.88;68.98;98803.80;223661;181;145318;-66
2023/06/23 14:53:28;;;;;;;22.00;11.50;;;;;;;25.89;69.07;98807.66;222932;181;140151;-66
2023/06/23 14:58:31;;;;;;;19.50;12.00;;;;;;;26.03;68.79;98815.52;223610;182;138550;-67
2023/06/23 15:03:36;;;;;;;150.80;120.20;;;;;;;26.11;68.62;98810.45;223550;181;145101;-66
2023/06/23 15:08:39;;;;;;;23.20;15.10;;;;;;;26.24;68.35;98781.48;223838;181;138348;-66
2023/06/23 15:13:42;;;;;;;20.60;12.90;;;;;;;26.23;68.16;98779.00;223717;181;138523;-66
2023/06/23 15:18:46;;;;;;;28.60;20.00;;;;;;;26.19;67.86;98801.98;223804;181;146555;-65
2023/06/23 15:23:49;;;;;;;24.10;15.20;;;;;;;26.12;67.68;98813.69;223827;181;138410;-67
2023/06/23 15:28:53;;;;;;;24.40;13.10;;;;;;;26.07;67.60;98815.16;223775;181;137505;-65
2023/06/23 15:50:46;;;;;;;25.50;12.50;;;;;;;26.02;67.32;98806.11;222969;188;666330;-65
2023/06/23 15:55:49;;;;;;;23.40;15.90;;;;;;;25.99;67.38;98822.95;223866;182;137930;-66
2023/06/23 16:00:53;;;;;;;24.40;15.20;;;;;;;25.99;67.43;98822.29;223660;183;143228;-65
2023/06/23 16:05:58;;;;;;;34.40;24.40;;;;;;;25.96;67.23;98814.05;223739;182;138093;-63
2023/06/23 16:11:02;;;;;;;19.80;12.70;;;;;;;25.90;67.40;98802.30;224048;183;136378;-64
2023/06/23 16:16:05;;;;;;;20.90;12.90;;;;;;;25.86;67.50;98792.84;223869;182;143824;-64
2023/06/23 16:21:09;;;;;;;24.10;13.00;;;;;;;25.82;67.46;98801.08;223827;182;138749;-64
2023/06/23 16:26:12;;;;;;;71.10;57.70;;;;;;;25.73;67.69;98816.37;223991;181;136697;-65
2023/06/23 16:31:15;;;;;;;28.10;12.70;;;;;;;25.70;68.15;98812.27;223720;181;143217;-65
2023/06/23 16:36:20;;;;;;;26.50;15.90;;;;;;;25.70;68.70;98815.71;223902;181;138407;-64
2023/06/23 16:41:23;;;;;;;;;;;;;;;25.75;68.94;98794.36;224046;181;139013;-64
2023/06/23 16:50:48;;;;;;;26.50;14.10;;;;;;;25.89;68.84;98762.52;220233;189;667006;-64
2023/06/23 16:55:52;;;;;;;25.50;14.40;;;;;;;25.86;68.94;98772.20;223640;185;137166;-65
2023/06/23 17:00:55;;;;;;;59.80;53.50;;;;;;;25.86;69.08;98754.58;223424;183;143963;-64
2023/06/23 17:05:58;;;;;;;28.90;21.50;;;;;;;25.87;69.51;98738.72;223479;184;138464;-65
2023/06/23 17:11:02;;;;;;;21.50;13.80;;;;;;;25.88;69.84;98738.70;223520;184;137261;-64
2023/06/23 17:16:05;;;;;;;20.90;13.50;;;;;;;25.90;69.98;98738.16;223492;185;143877;-65
2023/06/23 17:21:09;;;;;;;35.60;28.70;;;;;;;25.87;70.07;98755.64;223577;184;140146;-69
2023/06/23 17:26:12;;;;;;;28.60;14.90;;;;;;;25.82;70.21;98771.29;223525;184;136606;-66
2023/06/23 17:31:16;;;;;;;21.50;13.70;;;;;;;25.78;70.66;98775.77;223453;184;143515;-67
2023/06/23 17:36:19;;;;;;;20.80;14.70;;;;;;;25.83;70.87;98778.60;223584;183;138624;-66
2023/06/23 17:41:25;;;;;;;23.30;14.90;;;;;;;25.90;70.84;98788.84;223631;184;137528;-64
2023/06/23 17:46:29;;;;;;;27.20;15.20;;;;;;;25.93;70.76;98806.98;223515;183;145628;-66
2023/06/23 17:51:32;;;;;;;25.90;16.90;;;;;;;25.93;70.82;98804.08;223498;185;138116;-64
2023/06/23 17:56:35;;;;;;;21.30;14.50;;;;;;;25.87;71.14;98802.70;223507;183;136678;-64
2023/06/23 18:01:39;;;;;;;21.40;14.60;;;;;;;25.84;71.07;98822.86;223388;183;145003;-65
2023/06/23 18:06:42;;;;;;;26.80;17.00;;;;;;;25.74;71.32;98823.94;223199;184;138464;-65
2023/06/23 18:11:46;;;;;;;26.60;15.30;;;;;;;25.68;71.71;98841.95;223368;184;137357;-65
2023/06/23 18:16:49;;;;;;;23.60;15.90;;;;;;;25.62;72.32;98852.76;223748;182;145157;-66
2023/06/23 18:21:53;;;;;;;53.10;42.60;;;;;;;25.55;72.85;98855.30;223543;182;139293;-68
2023/06/23 18:26:56;;;;;;;22.10;13.90;;;;;;;25.45;72.98;98851.95;223686;182;137581;-66
2023/06/23 18:32:12;;;;;;;20.60;12.20;;;;;;;25.42;72.49;98852.20;223629;182;146679;-66
2023/06/23 18:37:17;;;;;;;16.40;11.10;;;;;;;25.33;71.64;98863.52;223589;182;138707;-66
2023/06/23 18:42:21;;;;;;;44.40;36.00;;;;;;;25.26;70.96;98857.46;223592;182;137481;-66
2023/06/23 18:47:26;;;;;;;15.90;9.10;;;;;;;25.21;70.56;98835.07;223540;181;145106;-67
2023/06/23 18:52:29;;;;;;;12.70;8.30;;;;;;;25.12;70.10;98840.99;223584;182;138542;-66
2023/06/23 18:57:33;;;;;;;13.80;8.40;;;;;;;25.06;69.99;98859.42;223533;182;139681;-66
2023/06/23 19:02:36;;;;;;;14.90;9.00;;;;;;;25.05;70.01;98871.05;223556;182;145241;-66
2023/06/23 19:07:40;;;;;;;16.50;10.00;;;;;;;25.01;70.36;98864.06;223507;182;138801;-65
2023/06/23 19:12:43;;;;;;;16.10;10.10;;;;;;;24.93;70.89;98867.12;223726;182;137055;-65
2023/06/23 19:17:46;;;;;;;14.00;8.80;;;;;;;24.84;71.30;98860.47;223644;182;146310;-66
2023/06/23 19:22:50;;;;;;;16.80;8.40;;;;;;;24.78;71.19;98863.67;223784;182;137712;-65
2023/06/23 19:27:53;;;;;;;19.20;9.90;;;;;;;24.72;71.02;98876.70;223701;182;137180;-67
2023/06/23 19:32:57;;;;;;;13.90;7.90;;;;;;;24.68;71.10;98885.81;223708;182;145598;-65
2023/06/23 19:38:00;;;;;;;10.10;7.30;;;;;;;24.63;70.95;98896.55;223643;182;138214;-68
2023/06/23 19:43:04;;;;;;;10.20;7.00;;;;;;;24.62;70.81;98908.34;223690;183;137501;-68
2023/06/23 19:48:07;;;;;;;13.60;7.40;;;;;;;24.63;70.70;98923.40;223731;182;145783;-67
2023/06/23 19:53:11;;;;;;;15.50;7.70;;;;;;;24.65;70.65;98936.57;223675;182;140389;-70
2023/06/23 19:58:21;;;;;;;17.30;7.50;;;;;;;24.62;70.56;98930.29;223729;182;136374;-70
2023/06/23 20:03:37;;;;;;;15.30;7.80;;;;;;;24.58;70.74;98938.80;223602;183;146218;-69
2023/06/23 20:08:41;;;;;;;15.20;7.00;;;;;;;24.50;70.82;98951.80;223593;182;139368;-65
2023/06/23 20:13:48;;;;;;;14.80;6.80;;;;;;;24.46;70.90;98954.71;223593;182;137958;-67
2023/06/23 20:18:51;;;;;;;12.50;6.50;;;;;;;24.43;70.92;98978.07;223717;183;145747;-66
2023/06/23 20:23:54;;;;;;;9.90;6.40;;;;;;;24.37;70.99;98999.83;223643;182;138941;-66
2023/06/23 20:28:58;;;;;;;11.50;6.00;;;;;;;24.28;71.13;98997.25;223669;182;136894;-68
2023/06/23 20:34:02;;;;;;;16.20;7.10;;;;;;;24.19;71.63;98981.63;223516;182;145532;-65
2023/06/23 20:39:05;;;;;;;11.50;7.50;;;;;;;24.15;72.33;98975.15;223650;183;161280;-67
2023/06/23 20:44:09;;;;;;;14.10;8.40;;;;;;;24.12;72.83;98982.52;223492;183;137891;-68
2023/06/23 20:49:14;;;;;;;;;;;;;;;24.11;73.30;98985.69;223507;183;146623;-68
2023/06/23 20:54:17;;;;;;;17.00;8.60;;;;;;;24.03;73.61;98990.30;223500;185;138553;-66
2023/06/23 20:59:30;;;;;;;13.00;8.00;;;;;;;23.95;73.86;98977.29;223517;183;137935;-67
2023/06/23 21:04:36;;;;;;;14.80;8.20;;;;;;;23.91;74.19;98970.73;223489;198;146322;-66
2023/06/23 21:09:42;;;;;;;12.30;7.90;;;;;;;23.98;74.37;98979.64;223390;182;138359;-66
2023/06/23 21:14:45;;;;;;;11.90;8.10;;;;;;;24.06;74.08;98983.23;223452;183;136959;-67
2023/06/23 21:20:11;;;;;;;15.30;8.20;;;;;;;24.07;73.82;98989.97;223409;182;145244;-66
2023/06/23 21:25:16;;;;;;;15.10;6.70;;;;;;;23.99;73.44;98984.22;223596;182;139181;-67
2023/06/23 21:30:20;;;;;;;;;;;;;;;23.89;73.20;98979.27;223622;182;137953;-67
2023/06/23 21:35:23;;;;;;;13.30;6.60;;;;;;;23.87;73.12;98986.50;223733;182;145857;-67
2023/06/23 21:40:26;;;;;;;10.80;6.00;;;;;;;23.82;72.90;98987.10;223690;182;139076;-67
2023/06/23 21:45:29;;;;;;;10.60;5.40;;;;;;;23.74;72.85;98997.48;223534;182;140850;-67
2023/06/23 21:50:33;;;;;;;8.90;5.00;;;;;;;23.66;72.65;99016.27;222605;183;145521;-66
2023/06/23 21:55:36;;;;;;;7.70;4.50;;;;;;;23.59;72.40;99023.75;223751;182;138566;-67
2023/06/23 22:00:41;;;;;;;11.90;4.40;;;;;;;23.51;71.76;99015.73;223548;182;136898;-66
2023/06/23 22:05:49;;;;;;;7.90;4.40;;;;;;;23.40;71.54;99020.45;223770;182;145062;-66
2023/06/23 22:10:52;;;;;;;8.60;4.50;;;;;;;23.27;71.50;99023.95;223604;182;139552;-67
2023/06/23 22:15:57;;;;;;;6.70;4.20;;;;;;;23.17;71.59;99028.98;223695;182;137726;-67
2023/06/23 22:21:00;;;;;;;6.10;4.80;;;;;;;23.04;71.45;99030.42;223758;182;145273;-66
2023/06/23 22:26:03;;;;;;;8.00;4.30;;;;;;;23.00;71.69;99024.44;223610;182;139856;-67
2023/06/23 22:31:07;;;;;;;7.00;3.90;;;;;;;22.95;71.45;99027.29;223657;181;136882;-67
2023/06/23 22:36:10;;;;;;;8.80;4.80;;;;;;;22.88;71.56;99035.64;223652;182;144982;-67
2023/06/23 22:41:14;;;;;;;7.50;4.30;;;;;;;22.81;71.61;99044.27;223626;182;140060;-67
2023/06/23 22:46:17;;;;;;;6.40;3.90;;;;;;;22.75;71.63;99047.82;223689;182;138250;-67
2023/06/23 22:51:20;;;;;;;5.80;3.90;;;;;;;22.75;71.71;99041.86;223689;182;145244;-67
2023/06/23 22:56:24;;;;;;;6.60;3.90;;;;;;;22.75;71.46;99038.04;223540;182;138903;-67
2023/06/23 23:01:27;;;;;;;11.20;4.70;;;;;;;22.72;71.59;99032.58;223657;181;137649;-67
2023/06/23 23:06:31;;;;;;;10.00;4.00;;;;;;;22.71;71.47;99041.23;223597;183;145268;-68
2023/06/23 23:11:34;;;;;;;9.10;4.30;;;;;;;22.61;71.56;99044.86;223717;182;139272;-67
2023/06/23 23:16:38;;;;;;;6.80;4.10;;;;;;;22.62;71.74;99048.68;223664;183;137189;-67
2023/06/23 23:21:41;;;;;;;8.70;4.20;;;;;;;22.59;71.71;99066.93;223650;182;145291;-66
2023/06/23 23:26:51;;;;;;;11.70;4.60;;;;;;;22.59;71.70;99092.06;223693;182;140235;-66
2023/06/23 23:31:59;;;;;;;9.30;4.10;;;;;;;22.55;71.37;99089.34;223724;182;137216;-65
2023/06/23 23:37:08;;;;;;;9.00;4.30;;;;;;;22.53;71.35;99078.02;223591;182;145933;-65
2023/06/23 23:42:11;;;;;;;7.90;4.50;;;;;;;22.51;71.05;99077.32;223727;182;138370;-66
2023/06/23 23:47:15;;;;;;;5.20;4.40;;;;;;;22.52;70.80;99077.92;223716;181;137138;-68
2023/06/23 23:52:18;;;;;;;7.00;4.60;;;;;;;22.49;70.37;99072.97;222792;182;145840;-65
2023/06/23 23:57:22;;;;;;;7.30;4.00;;;;;;;22.44;70.39;99064.06;223451;182;139223;-68
